sensor_id;sensor_type;location;lat;lon;timestamp;P1;durP1;ratioP1;P2;durP2;ratioP2
54853;SDS011;40747;49.480;8.658;2023-02-28T00:02:24;1.10;;;0.63;;
54853;SDS011;40747;49.480;8.658;2023-02-28T00:04:50;2.53;;;1.23;;
54853;SDS011;40747;49.480;8.658;2023-02-28T00:07:18;2.00;;;0.93;;
54853;SDS011;40747;49.480;8.658;2023-02-28T00:09:43;2.42;;;1.23;;
54853;SDS011;40747;49.480;8.658;2023-02-28T00:12:09;1.42;;;1.30;;
54853;SDS011;40747;49.480;8.658;2023-02-28T00:14:35;1.27;;;0.85;;
54853;SDS011;40747;49.480;8.658;2023-02-28T00:17:01;1.33;;;1.15;;
54853;SDS011;40747;49.480;8.658;2023-02-28T00:19:26;1.30;;;1.08;;
54853;SDS011;40747;49.480;8.658;2023-02-28T00:21:52;1.80;;;0.73;;
54853;SDS011;40747;49.480;8.658;2023-02-28T00:24:17;0.50;;;0.50;;
54853;SDS011;40747;49.480;8.658;2023-02-28T00:26:42;0.70;;;0.68;;
54853;SDS011;40747;49.480;8.658;2023-02-28T00:29:07;4.30;;;0.57;;
54853;SDS011;40747;49.480;8.658;2023-02-28T00:31:33;1.63;;;1.15;;
54853;SDS011;40747;49.480;8.658;2023-02-28T00:33:58;0.60;;;0.60;;
54853;SDS011;40747;49.480;8.658;2023-02-28T00:36:23;1.77;;;0.75;;
54853;SDS011;40747;49.480;8.658;2023-02-28T00:38:49;3.80;;;1.52;;
54853;SDS011;40747;49.480;8.658;2023-02-28T00:41:14;1.55;;;0.90;;
54853;SDS011;40747;49.480;8.658;2023-02-28T00:43:39;1.15;;;0.80;;
54853;SDS011;40747;49.480;8.658;2023-02-28T00:46:05;3.22;;;1.50;;
54853;SDS011;40747;49.480;8.658;2023-02-28T00:48:31;1.98;;;1.17;;
54853;SDS011;40747;49.480;8.658;2023-02-28T00:50:56;1.00;;;0.73;;
54853;SDS011;40747;49.480;8.658;2023-02-28T00:53:22;0.73;;;0.73;;
54853;SDS011;40747;49.480;8.658;2023-02-28T00:55:48;7.05;;;1.02;;
54853;SDS011;40747;49.480;8.658;2023-02-28T00:58:14;1.52;;;1.10;;
54853;SDS011;40747;49.480;8.658;2023-02-28T01:00:39;1.00;;;0.60;;
54853;SDS011;40747;49.480;8.658;2023-02-28T01:03:05;0.20;;;0.20;;
54853;SDS011;40747;49.480;8.658;2023-02-28T01:05:30;2.42;;;1.35;;
54853;SDS011;40747;49.480;8.658;2023-02-28T01:07:55;2.63;;;1.00;;
54853;SDS011;40747;49.480;8.658;2023-02-28T01:10:21;1.17;;;0.90;;
54853;SDS011;40747;49.480;8.658;2023-02-28T01:12:46;3.33;;;0.85;;
54853;SDS011;40747;49.480;8.658;2023-02-28T01:15:11;1.95;;;1.05;;
54853;SDS011;40747;49.480;8.658;2023-02-28T01:17:37;1.05;;;0.82;;
54853;SDS011;40747;49.480;8.658;2023-02-28T01:20:02;1.40;;;0.73;;
54853;SDS011;40747;49.480;8.658;2023-02-28T01:22:27;1.52;;;0.77;;
54853;SDS011;40747;49.480;8.658;2023-02-28T01:24:53;0.65;;;0.65;;
54853;SDS011;40747;49.480;8.658;2023-02-28T01:27:19;1.48;;;0.52;;
54853;SDS011;40747;49.480;8.658;2023-02-28T01:29:44;1.05;;;0.55;;
54853;SDS011;40747;49.480;8.658;2023-02-28T01:32:09;2.15;;;1.13;;
54853;SDS011;40747;49.480;8.658;2023-02-28T01:34:35;2.65;;;0.75;;
54853;SDS011;40747;49.480;8.658;2023-02-28T01:37:00;0.47;;;0.47;;
54853;SDS011;40747;49.480;8.658;2023-02-28T01:39:26;1.75;;;1.10;;
54853;SDS011;40747;49.480;8.658;2023-02-28T01:41:51;1.85;;;1.55;;
54853;SDS011;40747;49.480;8.658;2023-02-28T01:47:19;2.38;;;1.50;;
54853;SDS011;40747;49.480;8.658;2023-02-28T01:49:45;3.17;;;1.85;;
54853;SDS011;40747;49.480;8.658;2023-02-28T01:52:11;2.05;;;1.40;;
54853;SDS011;40747;49.480;8.658;2023-02-28T01:54:43;2.25;;;1.60;;
54853;SDS011;40747;49.480;8.658;2023-02-28T01:57:16;2.97;;;1.53;;
54853;SDS011;40747;49.480;8.658;2023-02-28T01:59:47;1.58;;;1.15;;
54853;SDS011;40747;49.480;8.658;2023-02-28T02:02:17;2.63;;;1.42;;
54853;SDS011;40747;49.480;8.658;2023-02-28T02:04:53;1.27;;;1.20;;
54853;SDS011;40747;49.480;8.658;2023-02-28T02:07:22;2.28;;;1.27;;
54853;SDS011;40747;49.480;8.658;2023-02-28T02:09:49;2.75;;;1.88;;
54853;SDS011;40747;49.480;8.658;2023-02-28T02:12:25;1.95;;;1.25;;
54853;SDS011;40747;49.480;8.658;2023-02-28T02:15:03;0.85;;;0.85;;
54853;SDS011;40747;49.480;8.658;2023-02-28T02:17:56;1.45;;;1.35;;
54853;SDS011;40747;49.480;8.658;2023-02-28T02:37:00;1.02;;;0.75;;
54853;SDS011;40747;49.480;8.658;2023-02-28T02:39:40;1.73;;;1.60;;
54853;SDS011;40747;49.480;8.658;2023-02-28T02:42:56;1.98;;;1.63;;
54853;SDS011;40747;49.480;8.658;2023-02-28T02:45:09;2.10;;;1.40;;
54853;SDS011;40747;49.480;8.658;2023-02-28T02:47:44;1.95;;;1.65;;
54853;SDS011;40747;49.480;8.658;2023-02-28T02:50:14;0.90;;;0.90;;
54853;SDS011;40747;49.480;8.658;2023-02-28T02:52:46;4.88;;;2.15;;
54853;SDS011;40747;49.480;8.658;2023-02-28T02:55:16;1.20;;;0.95;;
54853;SDS011;40747;49.480;8.658;2023-02-28T02:57:47;1.10;;;1.05;;
54853;SDS011;40747;49.480;8.658;2023-02-28T03:00:17;2.60;;;1.95;;
54853;SDS011;40747;49.480;8.658;2023-02-28T03:02:46;0.80;;;0.80;;
54853;SDS011;40747;49.480;8.658;2023-02-28T03:05:15;2.08;;;1.30;;
54853;SDS011;40747;49.480;8.658;2023-02-28T03:07:44;1.27;;;1.02;;
54853;SDS011;40747;49.480;8.658;2023-02-28T03:10:30;3.00;;;1.70;;
54853;SDS011;40747;49.480;8.658;2023-02-28T03:13:05;1.95;;;1.50;;
54853;SDS011;40747;49.480;8.658;2023-02-28T03:15:46;1.17;;;0.85;;
54853;SDS011;40747;49.480;8.658;2023-02-28T03:18:24;1.70;;;0.90;;
54853;SDS011;40747;49.480;8.658;2023-02-28T03:23:38;1.80;;;1.25;;
54853;SDS011;40747;49.480;8.658;2023-02-28T03:26:23;1.50;;;1.10;;
54853;SDS011;40747;49.480;8.658;2023-02-28T03:28:57;1.15;;;1.08;;
54853;SDS011;40747;49.480;8.658;2023-02-28T03:31:30;1.08;;;0.98;;
54853;SDS011;40747;49.480;8.658;2023-02-28T03:34:10;2.95;;;1.30;;
54853;SDS011;40747;49.480;8.658;2023-02-28T03:36:43;3.22;;;0.98;;
54853;SDS011;40747;49.480;8.658;2023-02-28T03:39:31;1.05;;;0.95;;
54853;SDS011;40747;49.480;8.658;2023-02-28T03:42:05;4.15;;;2.50;;
54853;SDS011;40747;49.480;8.658;2023-02-28T03:44:51;11.88;;;1.60;;
54853;SDS011;40747;49.480;8.658;2023-02-28T03:47:23;2.42;;;1.73;;
54853;SDS011;40747;49.480;8.658;2023-02-28T03:49:54;3.65;;;1.80;;
54853;SDS011;40747;49.480;8.658;2023-02-28T03:52:27;1.77;;;1.67;;
54853;SDS011;40747;49.480;8.658;2023-02-28T03:55:01;2.10;;;1.65;;
54853;SDS011;40747;49.480;8.658;2023-02-28T03:57:34;2.03;;;1.83;;
54853;SDS011;40747;49.480;8.658;2023-02-28T04:00:07;5.43;;;2.58;;
54853;SDS011;40747;49.480;8.658;2023-02-28T04:02:37;2.67;;;1.90;;
54853;SDS011;40747;49.480;8.658;2023-02-28T04:05:02;1.23;;;0.95;;
54853;SDS011;40747;49.480;8.658;2023-02-28T04:07:31;3.22;;;1.90;;
54853;SDS011;40747;49.480;8.658;2023-02-28T04:09:56;5.03;;;2.33;;
54853;SDS011;40747;49.480;8.658;2023-02-28T04:12:22;0.82;;;0.70;;
54853;SDS011;40747;49.480;8.658;2023-02-28T04:14:48;2.05;;;1.52;;
54853;SDS011;40747;49.480;8.658;2023-02-28T04:17:14;2.50;;;2.15;;
54853;SDS011;40747;49.480;8.658;2023-02-28T04:19:39;4.35;;;2.25;;
54853;SDS011;40747;49.480;8.658;2023-02-28T04:22:04;1.55;;;1.45;;
54853;SDS011;40747;49.480;8.658;2023-02-28T04:24:30;1.30;;;1.05;;
54853;SDS011;40747;49.480;8.658;2023-02-28T04:26:56;3.55;;;2.58;;
54853;SDS011;40747;49.480;8.658;2023-02-28T04:29:23;3.20;;;1.90;;
54853;SDS011;40747;49.480;8.658;2023-02-28T04:31:58;1.70;;;1.45;;
54853;SDS011;40747;49.480;8.658;2023-02-28T04:34:29;4.82;;;2.67;;
54853;SDS011;40747;49.480;8.658;2023-02-28T04:36:55;1.42;;;1.33;;
54853;SDS011;40747;49.480;8.658;2023-02-28T04:39:22;4.70;;;2.28;;
54853;SDS011;40747;49.480;8.658;2023-02-28T04:41:48;3.08;;;2.05;;
54853;SDS011;40747;49.480;8.658;2023-02-28T04:44:14;3.47;;;2.03;;
54853;SDS011;40747;49.480;8.658;2023-02-28T04:46:40;4.25;;;2.97;;
54853;SDS011;40747;49.480;8.658;2023-02-28T04:49:06;4.72;;;2.03;;
54853;SDS011;40747;49.480;8.658;2023-02-28T04:51:33;4.38;;;2.13;;
54853;SDS011;40747;49.480;8.658;2023-02-28T04:53:58;3.97;;;2.65;;
54853;SDS011;40747;49.480;8.658;2023-02-28T04:56:24;4.32;;;2.65;;
54853;SDS011;40747;49.480;8.658;2023-02-28T04:58:49;3.55;;;2.20;;
54853;SDS011;40747;49.480;8.658;2023-02-28T05:03:45;1.63;;;1.38;;
54853;SDS011;40747;49.480;8.658;2023-02-28T05:06:11;9.90;;;3.22;;
54853;SDS011;40747;49.480;8.658;2023-02-28T05:08:38;3.92;;;2.35;;
54853;SDS011;40747;49.480;8.658;2023-02-28T05:11:03;3.67;;;1.73;;
54853;SDS011;40747;49.480;8.658;2023-02-28T05:13:30;1.88;;;1.52;;
54853;SDS011;40747;49.480;8.658;2023-02-28T05:15:56;5.03;;;3.15;;
54853;SDS011;40747;49.480;8.658;2023-02-28T05:18:21;4.13;;;2.78;;
54853;SDS011;40747;49.480;8.658;2023-02-28T05:20:47;3.33;;;2.75;;
54853;SDS011;40747;49.480;8.658;2023-02-28T05:23:13;3.53;;;2.75;;
54853;SDS011;40747;49.480;8.658;2023-02-28T05:25:39;2.90;;;2.00;;
54853;SDS011;40747;49.480;8.658;2023-02-28T05:28:05;4.20;;;2.78;;
54853;SDS011;40747;49.480;8.658;2023-02-28T05:30:30;4.90;;;2.75;;
54853;SDS011;40747;49.480;8.658;2023-02-28T05:32:56;7.65;;;4.28;;
54853;SDS011;40747;49.480;8.658;2023-02-28T05:35:22;6.28;;;3.60;;
54853;SDS011;40747;49.480;8.658;2023-02-28T05:37:48;6.47;;;4.63;;
54853;SDS011;40747;49.480;8.658;2023-02-28T05:40:14;3.67;;;2.87;;
54853;SDS011;40747;49.480;8.658;2023-02-28T05:42:40;4.45;;;2.85;;
54853;SDS011;40747;49.480;8.658;2023-02-28T05:45:06;4.38;;;2.65;;
54853;SDS011;40747;49.480;8.658;2023-02-28T05:47:32;7.18;;;3.70;;
54853;SDS011;40747;49.480;8.658;2023-02-28T05:49:57;4.72;;;3.55;;
54853;SDS011;40747;49.480;8.658;2023-02-28T05:52:22;8.82;;;4.72;;
54853;SDS011;40747;49.480;8.658;2023-02-28T05:54:48;5.13;;;3.05;;
54853;SDS011;40747;49.480;8.658;2023-02-28T05:57:13;1.23;;;1.13;;
54853;SDS011;40747;49.480;8.658;2023-02-28T05:59:40;3.22;;;1.83;;
54853;SDS011;40747;49.480;8.658;2023-02-28T06:02:15;2.40;;;2.10;;
54853;SDS011;40747;49.480;8.658;2023-02-28T06:04:41;3.75;;;2.35;;
54853;SDS011;40747;49.480;8.658;2023-02-28T06:07:08;1.63;;;1.52;;
54853;SDS011;40747;49.480;8.658;2023-02-28T06:09:33;2.10;;;1.83;;
54853;SDS011;40747;49.480;8.658;2023-02-28T06:11:59;2.88;;;2.42;;
54853;SDS011;40747;49.480;8.658;2023-02-28T06:14:27;7.85;;;3.13;;
54853;SDS011;40747;49.480;8.658;2023-02-28T06:16:52;3.33;;;2.35;;
54853;SDS011;40747;49.480;8.658;2023-02-28T06:19:17;4.38;;;1.92;;
54853;SDS011;40747;49.480;8.658;2023-02-28T06:21:43;4.78;;;2.38;;
54853;SDS011;40747;49.480;8.658;2023-02-28T06:24:08;6.13;;;1.75;;
54853;SDS011;40747;49.480;8.658;2023-02-28T06:26:34;3.22;;;1.77;;
54853;SDS011;40747;49.480;8.658;2023-02-28T06:28:59;2.60;;;1.77;;
54853;SDS011;40747;49.480;8.658;2023-02-28T06:31:25;2.33;;;2.10;;
54853;SDS011;40747;49.480;8.658;2023-02-28T06:33:51;2.70;;;2.20;;
54853;SDS011;40747;49.480;8.658;2023-02-28T06:36:19;3.75;;;2.30;;
54853;SDS011;40747;49.480;8.658;2023-02-28T06:38:45;4.43;;;2.17;;
54853;SDS011;40747;49.480;8.658;2023-02-28T06:41:16;6.80;;;1.60;;
54853;SDS011;40747;49.480;8.658;2023-02-28T06:43:41;1.73;;;1.63;;
54853;SDS011;40747;49.480;8.658;2023-02-28T06:46:07;1.67;;;1.58;;
54853;SDS011;40747;49.480;8.658;2023-02-28T06:48:35;1.35;;;1.20;;
54853;SDS011;40747;49.480;8.658;2023-02-28T06:51:03;0.93;;;0.75;;
54853;SDS011;40747;49.480;8.658;2023-02-28T06:53:33;2.20;;;1.13;;
54853;SDS011;40747;49.480;8.658;2023-02-28T06:55:58;0.88;;;0.85;;
54853;SDS011;40747;49.480;8.658;2023-02-28T06:58:24;10.90;;;2.20;;
54853;SDS011;40747;49.480;8.658;2023-02-28T07:00:52;2.17;;;1.58;;
54853;SDS011;40747;49.480;8.658;2023-02-28T07:03:18;2.00;;;1.83;;
54853;SDS011;40747;49.480;8.658;2023-02-28T07:05:44;5.75;;;2.85;;
54853;SDS011;40747;49.480;8.658;2023-02-28T07:08:10;4.95;;;2.70;;
54853;SDS011;40747;49.480;8.658;2023-02-28T07:10:38;1.50;;;1.38;;
54853;SDS011;40747;49.480;8.658;2023-02-28T07:13:05;6.22;;;2.85;;
54853;SDS011;40747;49.480;8.658;2023-02-28T07:15:31;5.78;;;4.20;;
54853;SDS011;40747;49.480;8.658;2023-02-28T07:17:56;4.60;;;3.60;;
54853;SDS011;40747;49.480;8.658;2023-02-28T07:20:22;5.68;;;3.65;;
54853;SDS011;40747;49.480;8.658;2023-02-28T07:22:48;6.80;;;4.15;;
54853;SDS011;40747;49.480;8.658;2023-02-28T07:25:20;1.88;;;1.73;;
54853;SDS011;40747;49.480;8.658;2023-02-28T07:27:46;2.92;;;1.48;;
54853;SDS011;40747;49.480;8.658;2023-02-28T07:30:11;4.32;;;1.65;;
54853;SDS011;40747;49.480;8.658;2023-02-28T07:32:37;1.77;;;1.60;;
54853;SDS011;40747;49.480;8.658;2023-02-28T07:35:02;7.03;;;2.70;;
54853;SDS011;40747;49.480;8.658;2023-02-28T07:37:28;5.55;;;3.03;;
54853;SDS011;40747;49.480;8.658;2023-02-28T07:39:56;3.63;;;2.90;;
54853;SDS011;40747;49.480;8.658;2023-02-28T07:42:21;3.08;;;2.00;;
54853;SDS011;40747;49.480;8.658;2023-02-28T07:44:46;2.28;;;1.73;;
54853;SDS011;40747;49.480;8.658;2023-02-28T07:47:12;1.67;;;1.40;;
54853;SDS011;40747;49.480;8.658;2023-02-28T07:49:37;3.58;;;2.50;;
54853;SDS011;40747;49.480;8.658;2023-02-28T07:52:03;4.40;;;2.13;;
54853;SDS011;40747;49.480;8.658;2023-02-28T07:54:30;10.60;;;1.75;;
54853;SDS011;40747;49.480;8.658;2023-02-28T07:56:56;6.00;;;2.97;;
54853;SDS011;40747;49.480;8.658;2023-02-28T07:59:21;6.90;;;4.07;;
54853;SDS011;40747;49.480;8.658;2023-02-28T08:01:46;2.20;;;2.00;;
54853;SDS011;40747;49.480;8.658;2023-02-28T08:04:13;5.47;;;3.38;;
54853;SDS011;40747;49.480;8.658;2023-02-28T08:06:39;4.68;;;2.70;;
54853;SDS011;40747;49.480;8.658;2023-02-28T08:09:04;3.72;;;2.67;;
54853;SDS011;40747;49.480;8.658;2023-02-28T08:11:29;6.18;;;2.90;;
54853;SDS011;40747;49.480;8.658;2023-02-28T08:13:54;5.05;;;2.80;;
54853;SDS011;40747;49.480;8.658;2023-02-28T08:16:20;3.83;;;2.10;;
54853;SDS011;40747;49.480;8.658;2023-02-28T08:18:47;7.53;;;3.35;;
54853;SDS011;40747;49.480;8.658;2023-02-28T08:21:14;5.00;;;2.67;;
54853;SDS011;40747;49.480;8.658;2023-02-28T08:23:39;4.20;;;2.45;;
54853;SDS011;40747;49.480;8.658;2023-02-28T08:26:05;8.25;;;3.75;;
54853;SDS011;40747;49.480;8.658;2023-02-28T08:28:30;3.17;;;2.10;;
54853;SDS011;40747;49.480;8.658;2023-02-28T08:30:56;8.30;;;4.00;;
54853;SDS011;40747;49.480;8.658;2023-02-28T08:33:21;5.60;;;3.47;;
54853;SDS011;40747;49.480;8.658;2023-02-28T08:35:47;4.90;;;3.65;;
54853;SDS011;40747;49.480;8.658;2023-02-28T08:38:13;3.75;;;2.75;;
54853;SDS011;40747;49.480;8.658;2023-02-28T08:40:38;3.35;;;2.35;;
54853;SDS011;40747;49.480;8.658;2023-02-28T08:43:04;5.20;;;2.45;;
54853;SDS011;40747;49.480;8.658;2023-02-28T08:45:29;4.85;;;3.08;;
54853;SDS011;40747;49.480;8.658;2023-02-28T08:47:55;5.63;;;1.98;;
54853;SDS011;40747;49.480;8.658;2023-02-28T08:50:21;4.57;;;2.38;;
54853;SDS011;40747;49.480;8.658;2023-02-28T08:52:46;4.90;;;3.03;;
54853;SDS011;40747;49.480;8.658;2023-02-28T08:55:12;3.35;;;2.80;;
54853;SDS011;40747;49.480;8.658;2023-02-28T08:57:37;6.22;;;3.22;;
54853;SDS011;40747;49.480;8.658;2023-02-28T09:00:03;3.40;;;2.33;;
54853;SDS011;40747;49.480;8.658;2023-02-28T09:02:29;1.55;;;1.23;;
54853;SDS011;40747;49.480;8.658;2023-02-28T09:04:57;2.67;;;1.38;;
54853;SDS011;40747;49.480;8.658;2023-02-28T09:07:23;6.13;;;2.10;;
54853;SDS011;40747;49.480;8.658;2023-02-28T09:09:49;4.65;;;3.03;;
54853;SDS011;40747;49.480;8.658;2023-02-28T09:12:23;4.03;;;1.85;;
54853;SDS011;40747;49.480;8.658;2023-02-28T09:14:50;2.80;;;1.77;;
54853;SDS011;40747;49.480;8.658;2023-02-28T09:17:15;3.25;;;2.17;;
54853;SDS011;40747;49.480;8.658;2023-02-28T09:19:41;4.15;;;2.22;;
54853;SDS011;40747;49.480;8.658;2023-02-28T09:22:07;3.45;;;2.17;;
54853;SDS011;40747;49.480;8.658;2023-02-28T09:24:33;3.50;;;2.33;;
54853;SDS011;40747;49.480;8.658;2023-02-28T09:26:58;4.03;;;2.25;;
54853;SDS011;40747;49.480;8.658;2023-02-28T09:29:23;2.10;;;1.90;;
54853;SDS011;40747;49.480;8.658;2023-02-28T09:31:49;3.75;;;2.60;;
54853;SDS011;40747;49.480;8.658;2023-02-28T09:34:14;3.35;;;2.10;;
54853;SDS011;40747;49.480;8.658;2023-02-28T09:36:42;3.95;;;1.95;;
54853;SDS011;40747;49.480;8.658;2023-02-28T09:39:07;4.93;;;3.20;;
54853;SDS011;40747;49.480;8.658;2023-02-28T09:41:37;5.32;;;2.53;;
54853;SDS011;40747;49.480;8.658;2023-02-28T09:44:13;5.60;;;3.30;;
54853;SDS011;40747;49.480;8.658;2023-02-28T09:46:46;6.13;;;3.40;;
54853;SDS011;40747;49.480;8.658;2023-02-28T09:49:18;6.22;;;4.63;;
54853;SDS011;40747;49.480;8.658;2023-02-28T09:52:02;2.78;;;2.20;;
54853;SDS011;40747;49.480;8.658;2023-02-28T09:54:33;2.92;;;2.15;;
54853;SDS011;40747;49.480;8.658;2023-02-28T09:57:31;3.45;;;1.85;;
54853;SDS011;40747;49.480;8.658;2023-02-28T09:59:49;3.95;;;2.33;;
54853;SDS011;40747;49.480;8.658;2023-02-28T10:05:00;8.73;;;4.13;;
54853;SDS011;40747;49.480;8.658;2023-02-28T10:10:17;6.35;;;2.88;;
54853;SDS011;40747;49.480;8.658;2023-02-28T10:12:46;7.38;;;3.72;;
54853;SDS011;40747;49.480;8.658;2023-02-28T10:15:16;3.85;;;2.47;;
54853;SDS011;40747;49.480;8.658;2023-02-28T10:17:43;5.82;;;2.75;;
54853;SDS011;40747;49.480;8.658;2023-02-28T10:20:14;2.55;;;1.98;;
54853;SDS011;40747;49.480;8.658;2023-02-28T10:25:26;3.85;;;2.65;;
54853;SDS011;40747;49.480;8.658;2023-02-28T10:27:54;5.60;;;3.20;;
54853;SDS011;40747;49.480;8.658;2023-02-28T10:30:26;2.92;;;2.35;;
54853;SDS011;40747;49.480;8.658;2023-02-28T10:32:52;6.15;;;2.88;;
54853;SDS011;40747;49.480;8.658;2023-02-28T10:35:21;4.90;;;2.40;;
54853;SDS011;40747;49.480;8.658;2023-02-28T10:37:54;4.55;;;2.03;;
54853;SDS011;40747;49.480;8.658;2023-02-28T10:43:11;6.83;;;3.83;;
54853;SDS011;40747;49.480;8.658;2023-02-28T10:45:38;4.32;;;2.97;;
54853;SDS011;40747;49.480;8.658;2023-02-28T10:48:05;6.63;;;2.72;;
54853;SDS011;40747;49.480;8.658;2023-02-28T10:50:51;6.22;;;3.53;;
54853;SDS011;40747;49.480;8.658;2023-02-28T10:55:58;5.35;;;3.95;;
54853;SDS011;40747;49.480;8.658;2023-02-28T10:58:24;4.88;;;3.05;;
54853;SDS011;40747;49.480;8.658;2023-02-28T11:00:51;4.18;;;2.72;;
54853;SDS011;40747;49.480;8.658;2023-02-28T11:06:14;5.65;;;3.33;;
54853;SDS011;40747;49.480;8.658;2023-02-28T11:08:55;2.95;;;2.65;;
54853;SDS011;40747;49.480;8.658;2023-02-28T11:11:23;6.07;;;2.65;;
54853;SDS011;40747;49.480;8.658;2023-02-28T11:13:58;5.80;;;2.58;;
54853;SDS011;40747;49.480;8.658;2023-02-28T11:16:31;8.00;;;3.60;;
54853;SDS011;40747;49.480;8.658;2023-02-28T11:18:59;4.85;;;2.58;;
54853;SDS011;40747;49.480;8.658;2023-02-28T11:21:26;7.22;;;4.65;;
54853;SDS011;40747;49.480;8.658;2023-02-28T11:24:02;4.57;;;2.83;;
54853;SDS011;40747;49.480;8.658;2023-02-28T11:26:35;4.82;;;3.00;;
54853;SDS011;40747;49.480;8.658;2023-02-28T11:29:16;7.35;;;3.78;;
54853;SDS011;40747;49.480;8.658;2023-02-28T11:31:43;5.05;;;3.03;;
54853;SDS011;40747;49.480;8.658;2023-02-28T11:34:31;5.35;;;3.95;;
54853;SDS011;40747;49.480;8.658;2023-02-28T11:36:58;5.30;;;3.58;;
54853;SDS011;40747;49.480;8.658;2023-02-28T11:39:26;5.95;;;2.55;;
54853;SDS011;40747;49.480;8.658;2023-02-28T11:44:23;4.68;;;2.90;;
54853;SDS011;40747;49.480;8.658;2023-02-28T11:53:26;4.13;;;2.80;;
54853;SDS011;40747;49.480;8.658;2023-02-28T11:56:10;4.45;;;3.08;;
54853;SDS011;40747;49.480;8.658;2023-02-28T12:04:12;1.27;;;1.05;;
54853;SDS011;40747;49.480;8.658;2023-02-28T12:06:57;10.80;;;3.85;;
54853;SDS011;40747;49.480;8.658;2023-02-28T12:13:05;2.40;;;1.63;;
54853;SDS011;40747;49.480;8.658;2023-02-28T12:15:32;7.28;;;3.08;;
54853;SDS011;40747;49.480;8.658;2023-02-28T12:26:39;6.80;;;4.30;;
54853;SDS011;40747;49.480;8.658;2023-02-28T12:29:12;5.95;;;3.30;;
54853;SDS011;40747;49.480;8.658;2023-02-28T12:32:04;6.38;;;3.67;;
54853;SDS011;40747;49.480;8.658;2023-02-28T12:34:38;7.50;;;3.47;;
54853;SDS011;40747;49.480;8.658;2023-02-28T12:37:10;6.35;;;3.65;;
54853;SDS011;40747;49.480;8.658;2023-02-28T12:39:44;7.43;;;3.70;;
54853;SDS011;40747;49.480;8.658;2023-02-28T12:42:17;7.80;;;3.97;;
54853;SDS011;40747;49.480;8.658;2023-02-28T12:44:49;8.77;;;3.72;;
54853;SDS011;40747;49.480;8.658;2023-02-28T12:47:19;7.85;;;4.28;;
54853;SDS011;40747;49.480;8.658;2023-02-28T12:49:56;9.52;;;2.83;;
54853;SDS011;40747;49.480;8.658;2023-02-28T12:52:28;7.40;;;3.83;;
54853;SDS011;40747;49.480;8.658;2023-02-28T12:55:13;7.85;;;4.40;;
54853;SDS011;40747;49.480;8.658;2023-02-28T12:57:50;6.93;;;4.75;;
54853;SDS011;40747;49.480;8.658;2023-02-28T13:00:25;6.55;;;4.43;;
54853;SDS011;40747;49.480;8.658;2023-02-28T13:05:49;5.00;;;3.53;;
54853;SDS011;40747;49.480;8.658;2023-02-28T13:08:45;5.80;;;3.30;;
54853;SDS011;40747;49.480;8.658;2023-02-28T13:11:29;4.70;;;2.72;;
54853;SDS011;40747;49.480;8.658;2023-02-28T13:14:02;5.53;;;3.47;;
54853;SDS011;40747;49.480;8.658;2023-02-28T13:16:47;3.97;;;3.33;;
54853;SDS011;40747;49.480;8.658;2023-02-28T13:19:20;6.97;;;5.03;;
54853;SDS011;40747;49.480;8.658;2023-02-28T13:21:48;6.03;;;4.25;;
54853;SDS011;40747;49.480;8.658;2023-02-28T13:29:36;9.27;;;6.53;;
54853;SDS011;40747;49.480;8.658;2023-02-28T13:34:38;10.48;;;5.97;;
54853;SDS011;40747;49.480;8.658;2023-02-28T13:39:48;5.07;;;2.92;;
54853;SDS011;40747;49.480;8.658;2023-02-28T13:42:23;11.18;;;7.40;;
54853;SDS011;40747;49.480;8.658;2023-02-28T13:47:43;8.18;;;4.53;;
54853;SDS011;40747;49.480;8.658;2023-02-28T14:01:16;8.48;;;5.00;;
54853;SDS011;40747;49.480;8.658;2023-02-28T14:07:33;8.75;;;4.78;;
54853;SDS011;40747;49.480;8.658;2023-02-28T14:15:30;5.80;;;3.72;;
54853;SDS011;40747;49.480;8.658;2023-02-28T14:21:03;10.68;;;5.32;;
54853;SDS011;40747;49.480;8.658;2023-02-28T14:23:57;8.85;;;5.72;;
54853;SDS011;40747;49.480;8.658;2023-02-28T14:26:38;11.98;;;7.05;;
54853;SDS011;40747;49.480;8.658;2023-02-28T14:32:27;6.97;;;5.05;;
54853;SDS011;40747;49.480;8.658;2023-02-28T14:35:20;9.07;;;6.00;;
54853;SDS011;40747;49.480;8.658;2023-02-28T14:38:00;8.30;;;4.63;;
54853;SDS011;40747;49.480;8.658;2023-02-28T14:40:32;10.15;;;4.78;;
54853;SDS011;40747;49.480;8.658;2023-02-28T14:43:01;11.10;;;6.75;;
54853;SDS011;40747;49.480;8.658;2023-02-28T14:45:31;7.55;;;5.72;;
54853;SDS011;40747;49.480;8.658;2023-02-28T14:47:59;6.97;;;3.40;;
54853;SDS011;40747;49.480;8.658;2023-02-28T14:50:34;8.20;;;6.00;;
54853;SDS011;40747;49.480;8.658;2023-02-28T14:53:01;8.02;;;5.25;;
54853;SDS011;40747;49.480;8.658;2023-02-28T14:55:28;8.75;;;5.05;;
54853;SDS011;40747;49.480;8.658;2023-02-28T14:57:57;7.45;;;4.72;;
54853;SDS011;40747;49.480;8.658;2023-02-28T15:00:25;9.27;;;5.05;;
54853;SDS011;40747;49.480;8.658;2023-02-28T15:02:53;8.55;;;4.55;;
54853;SDS011;40747;49.480;8.658;2023-02-28T15:05:22;8.35;;;4.90;;
54853;SDS011;40747;49.480;8.658;2023-02-28T15:07:48;12.20;;;6.80;;
54853;SDS011;40747;49.480;8.658;2023-02-28T15:10:25;11.32;;;6.07;;
54853;SDS011;40747;49.480;8.658;2023-02-28T15:12:52;6.80;;;4.60;;
54853;SDS011;40747;49.480;8.658;2023-02-28T15:15:55;7.30;;;3.60;;
54853;SDS011;40747;49.480;8.658;2023-02-28T15:21:38;7.85;;;4.18;;
54853;SDS011;40747;49.480;8.658;2023-02-28T15:26:36;4.53;;;3.08;;
54853;SDS011;40747;49.480;8.658;2023-02-28T15:29:05;6.35;;;3.65;;
54853;SDS011;40747;49.480;8.658;2023-02-28T15:31:34;5.60;;;4.00;;
54853;SDS011;40747;49.480;8.658;2023-02-28T15:34:05;6.88;;;3.97;;
54853;SDS011;40747;49.480;8.658;2023-02-28T15:36:32;6.00;;;3.72;;
54853;SDS011;40747;49.480;8.658;2023-02-28T15:39:02;9.45;;;5.93;;
54853;SDS011;40747;49.480;8.658;2023-02-28T15:41:35;5.43;;;3.58;;
54853;SDS011;40747;49.480;8.658;2023-02-28T15:47:04;6.60;;;3.13;;
54853;SDS011;40747;49.480;8.658;2023-02-28T15:52:27;7.63;;;2.65;;
54853;SDS011;40747;49.480;8.658;2023-02-28T15:55:18;4.15;;;3.20;;
54853;SDS011;40747;49.480;8.658;2023-02-28T15:57:47;5.88;;;3.95;;
54853;SDS011;40747;49.480;8.658;2023-02-28T16:00:18;5.40;;;3.05;;
54853;SDS011;40747;49.480;8.658;2023-02-28T16:02:45;5.82;;;3.25;;
54853;SDS011;40747;49.480;8.658;2023-02-28T16:07:41;4.63;;;3.10;;
54853;SDS011;40747;49.480;8.658;2023-02-28T16:10:09;8.18;;;4.25;;
54853;SDS011;40747;49.480;8.658;2023-02-28T16:12:39;9.80;;;5.65;;
54853;SDS011;40747;49.480;8.658;2023-02-28T16:15:06;6.70;;;3.50;;
54853;SDS011;40747;49.480;8.658;2023-02-28T16:17:35;5.00;;;2.35;;
54853;SDS011;40747;49.480;8.658;2023-02-28T16:20:11;6.82;;;4.20;;
54853;SDS011;40747;49.480;8.658;2023-02-28T16:22:38;7.47;;;3.92;;
54853;SDS011;40747;49.480;8.658;2023-02-28T16:25:04;7.50;;;3.33;;
54853;SDS011;40747;49.480;8.658;2023-02-28T16:27:33;6.25;;;3.83;;
54853;SDS011;40747;49.480;8.658;2023-02-28T16:30:02;8.45;;;4.25;;
54853;SDS011;40747;49.480;8.658;2023-02-28T16:32:32;8.10;;;4.68;;
54853;SDS011;40747;49.480;8.658;2023-02-28T16:35:00;8.65;;;4.45;;
54853;SDS011;40747;49.480;8.658;2023-02-28T16:37:26;9.20;;;5.35;;
54853;SDS011;40747;49.480;8.658;2023-02-28T16:39:52;6.43;;;4.13;;
54853;SDS011;40747;49.480;8.658;2023-02-28T16:42:22;5.15;;;3.72;;
54853;SDS011;40747;49.480;8.658;2023-02-28T16:44:50;7.28;;;4.50;;
54853;SDS011;40747;49.480;8.658;2023-02-28T16:47:16;12.18;;;5.63;;
54853;SDS011;40747;49.480;8.658;2023-02-28T16:49:42;8.13;;;5.20;;
54853;SDS011;40747;49.480;8.658;2023-02-28T16:52:08;5.85;;;3.78;;
54853;SDS011;40747;49.480;8.658;2023-02-28T16:54:34;7.82;;;5.20;;
54853;SDS011;40747;49.480;8.658;2023-02-28T16:57:00;9.25;;;5.57;;
54853;SDS011;40747;49.480;8.658;2023-02-28T16:59:27;5.97;;;2.83;;
54853;SDS011;40747;49.480;8.658;2023-02-28T17:01:54;9.63;;;5.05;;
54853;SDS011;40747;49.480;8.658;2023-02-28T17:04:21;9.20;;;4.47;;
54853;SDS011;40747;49.480;8.658;2023-02-28T17:06:47;9.88;;;5.38;;